sensor_id;sensor_type;location;lat;lon;timestamp;P1;durP1;ratioP1;P2;durP2;ratioP2
14203;SDS011;7185;51.854;6.622;2024-02-26T00:01:51;5.10;;;3.47;;
14203;SDS011;7185;51.854;6.622;2024-02-26T00:04:23;6.57;;;3.22;;
14203;SDS011;7185;51.854;6.622;2024-02-26T00:06:55;5.05;;;3.35;;
14203;SDS011;7185;51.854;6.622;2024-02-26T00:09:28;4.32;;;3.40;;
14203;SDS011;7185;51.854;6.622;2024-02-26T00:12:00;5.40;;;3.40;;
14203;SDS011;7185;51.854;6.622;2024-02-26T00:14:33;5.65;;;3.33;;
14203;SDS011;7185;51.854;6.622;2024-02-26T00:17:05;5.43;;;3.70;;
14203;SDS011;7185;51.854;6.622;2024-02-26T00:19:37;7.10;;;4.38;;
14203;SDS011;7185;51.854;6.622;2024-02-26T00:22:08;4.50;;;3.10;;
14203;SDS011;7185;51.854;6.622;2024-02-26T00:24:40;7.07;;;4.05;;
14203;SDS011;7185;51.854;6.622;2024-02-26T00:27:12;7.45;;;4.22;;
14203;SDS011;7185;51.854;6.622;2024-02-26T00:29:45;5.65;;;3.63;;
14203;SDS011;7185;51.854;6.622;2024-02-26T00:32:17;5.30;;;3.70;;
14203;SDS011;7185;51.854;6.622;2024-02-26T00:34:48;5.57;;;3.50;;
14203;SDS011;7185;51.854;6.622;2024-02-26T00:37:20;7.93;;;3.90;;
14203;SDS011;7185;51.854;6.622;2024-02-26T00:39:52;5.68;;;3.20;;
14203;SDS011;7185;51.854;6.622;2024-02-26T00:42:24;5.45;;;3.03;;
14203;SDS011;7185;51.854;6.622;2024-02-26T00:44:57;6.47;;;3.10;;
14203;SDS011;7185;51.854;6.622;2024-02-26T00:47:29;4.60;;;2.78;;
14203;SDS011;7185;51.854;6.622;2024-02-26T00:50:00;4.82;;;3.15;;
14203;SDS011;7185;51.854;6.622;2024-02-26T00:52:32;6.03;;;3.33;;
14203;SDS011;7185;51.854;6.622;2024-02-26T00:55:04;4.45;;;3.08;;
14203;SDS011;7185;51.854;6.622;2024-02-26T00:57:37;5.22;;;2.83;;
14203;SDS011;7185;51.854;6.622;2024-02-26T01:00:12;5.55;;;2.95;;
14203;SDS011;7185;51.854;6.622;2024-02-26T01:02:45;5.50;;;3.30;;
14203;SDS011;7185;51.854;6.622;2024-02-26T01:05:17;7.18;;;3.00;;
14203;SDS011;7185;51.854;6.622;2024-02-26T01:07:49;3.85;;;2.75;;
14203;SDS011;7185;51.854;6.622;2024-02-26T01:10:21;6.50;;;3.22;;
14203;SDS011;7185;51.854;6.622;2024-02-26T01:12:52;7.45;;;3.35;;
14203;SDS011;7185;51.854;6.622;2024-02-26T01:15:26;8.52;;;3.40;;
14203;SDS011;7185;51.854;6.622;2024-02-26T01:17:57;5.32;;;3.00;;
14203;SDS011;7185;51.854;6.622;2024-02-26T01:20:29;5.55;;;3.08;;
14203;SDS011;7185;51.854;6.622;2024-02-26T01:23:01;5.18;;;3.20;;
14203;SDS011;7185;51.854;6.622;2024-02-26T01:25:32;4.78;;;3.38;;
14203;SDS011;7185;51.854;6.622;2024-02-26T01:28:04;5.78;;;3.45;;
14203;SDS011;7185;51.854;6.622;2024-02-26T01:30:38;4.97;;;3.00;;
14203;SDS011;7185;51.854;6.622;2024-02-26T01:33:09;5.90;;;3.85;;
14203;SDS011;7185;51.854;6.622;2024-02-26T01:35:41;4.80;;;3.25;;
14203;SDS011;7185;51.854;6.622;2024-02-26T01:38:13;5.55;;;3.50;;
14203;SDS011;7185;51.854;6.622;2024-02-26T01:40:45;5.53;;;3.90;;
14203;SDS011;7185;51.854;6.622;2024-02-26T01:43:16;7.25;;;3.92;;
14203;SDS011;7185;51.854;6.622;2024-02-26T01:45:49;5.90;;;3.50;;
14203;SDS011;7185;51.854;6.622;2024-02-26T01:48:21;6.38;;;3.90;;
14203;SDS011;7185;51.854;6.622;2024-02-26T01:50:53;7.45;;;4.40;;
14203;SDS011;7185;51.854;6.622;2024-02-26T01:53:25;6.05;;;3.47;;
14203;SDS011;7185;51.854;6.622;2024-02-26T01:55:56;6.32;;;3.70;;
14203;SDS011;7185;51.854;6.622;2024-02-26T01:58:28;5.93;;;3.40;;
14203;SDS011;7185;51.854;6.622;2024-02-26T02:01:03;5.60;;;3.75;;
14203;SDS011;7185;51.854;6.622;2024-02-26T02:03:36;5.53;;;3.55;;
14203;SDS011;7185;51.854;6.622;2024-02-26T02:06:08;5.32;;;4.00;;
14203;SDS011;7185;51.854;6.622;2024-02-26T02:08:40;6.47;;;3.88;;
14203;SDS011;7185;51.854;6.622;2024-02-26T02:11:13;7.43;;;3.92;;
14203;SDS011;7185;51.854;6.622;2024-02-26T02:13:45;5.32;;;3.55;;
14203;SDS011;7185;51.854;6.622;2024-02-26T02:16:18;4.75;;;3.35;;
14203;SDS011;7185;51.854;6.622;2024-02-26T02:18:50;5.63;;;3.55;;
14203;SDS011;7185;51.854;6.622;2024-02-26T02:21:23;5.35;;;3.58;;
14203;SDS011;7185;51.854;6.622;2024-02-26T02:23:55;5.90;;;3.60;;
14203;SDS011;7185;51.854;6.622;2024-02-26T02:26:27;5.07;;;3.50;;
14203;SDS011;7185;51.854;6.622;2024-02-26T02:28:59;6.53;;;3.88;;
14203;SDS011;7185;51.854;6.622;2024-02-26T02:31:31;4.47;;;3.50;;
14203;SDS011;7185;51.854;6.622;2024-02-26T02:34:03;5.95;;;3.75;;
14203;SDS011;7185;51.854;6.622;2024-02-26T02:36:36;6.93;;;3.90;;
14203;SDS011;7185;51.854;6.622;2024-02-26T02:39:19;4.38;;;3.25;;
14203;SDS011;7185;51.854;6.622;2024-02-26T02:41:52;5.10;;;3.22;;
14203;SDS011;7185;51.854;6.622;2024-02-26T02:44:24;5.30;;;3.45;;
14203;SDS011;7185;51.854;6.622;2024-02-26T02:46:55;4.93;;;3.40;;
14203;SDS011;7185;51.854;6.622;2024-02-26T02:49:27;4.72;;;3.35;;
14203;SDS011;7185;51.854;6.622;2024-02-26T02:52:00;5.30;;;3.10;;
14203;SDS011;7185;51.854;6.622;2024-02-26T02:54:32;4.22;;;3.03;;
14203;SDS011;7185;51.854;6.622;2024-02-26T02:57:04;7.25;;;3.20;;
14203;SDS011;7185;51.854;6.622;2024-02-26T02:59:36;5.10;;;3.30;;
14203;SDS011;7185;51.854;6.622;2024-02-26T03:02:08;5.82;;;3.08;;
14203;SDS011;7185;51.854;6.622;2024-02-26T03:04:40;5.25;;;3.45;;
14203;SDS011;7185;51.854;6.622;2024-02-26T03:07:13;4.13;;;2.60;;
14203;SDS011;7185;51.854;6.622;2024-02-26T03:09:44;4.75;;;2.60;;
14203;SDS011;7185;51.854;6.622;2024-02-26T03:12:16;4.97;;;2.92;;
14203;SDS011;7185;51.854;6.622;2024-02-26T03:14:48;4.38;;;2.90;;
14203;SDS011;7185;51.854;6.622;2024-02-26T03:17:20;4.75;;;2.60;;
14203;SDS011;7185;51.854;6.622;2024-02-26T03:19:54;4.00;;;2.58;;
14203;SDS011;7185;51.854;6.622;2024-02-26T03:22:27;3.65;;;2.53;;
14203;SDS011;7185;51.854;6.622;2024-02-26T03:24:59;4.07;;;2.50;;
14203;SDS011;7185;51.854;6.622;2024-02-26T03:27:31;4.22;;;2.80;;
14203;SDS011;7185;51.854;6.622;2024-02-26T03:30:03;3.45;;;2.55;;
14203;SDS011;7185;51.854;6.622;2024-02-26T03:32:35;6.03;;;3.42;;
14203;SDS011;7185;51.854;6.622;2024-02-26T03:35:07;5.38;;;2.70;;
14203;SDS011;7185;51.854;6.622;2024-02-26T03:37:41;3.55;;;2.50;;
14203;SDS011;7185;51.854;6.622;2024-02-26T03:40:13;3.72;;;2.42;;
14203;SDS011;7185;51.854;6.622;2024-02-26T03:42:44;4.10;;;2.90;;
14203;SDS011;7185;51.854;6.622;2024-02-26T03:45:16;6.05;;;2.67;;
14203;SDS011;7185;51.854;6.622;2024-02-26T03:50:21;3.58;;;2.50;;
14203;SDS011;7185;51.854;6.622;2024-02-26T03:52:54;4.40;;;2.35;;
14203;SDS011;7185;51.854;6.622;2024-02-26T03:55:27;4.15;;;2.50;;
14203;SDS011;7185;51.854;6.622;2024-02-26T03:57:59;4.43;;;2.70;;
14203;SDS011;7185;51.854;6.622;2024-02-26T04:00:31;6.13;;;2.75;;
14203;SDS011;7185;51.854;6.622;2024-02-26T04:03:02;3.83;;;2.67;;
14203;SDS011;7185;51.854;6.622;2024-02-26T04:05:34;6.43;;;2.90;;
14203;SDS011;7185;51.854;6.622;2024-02-26T04:08:07;3.88;;;2.50;;
14203;SDS011;7185;51.854;6.622;2024-02-26T04:10:41;6.90;;;2.63;;
14203;SDS011;7185;51.854;6.622;2024-02-26T04:13:12;4.13;;;2.58;;
14203;SDS011;7185;51.854;6.622;2024-02-26T04:15:44;3.40;;;2.60;;
14203;SDS011;7185;51.854;6.622;2024-02-26T04:18:17;5.50;;;2.47;;
14203;SDS011;7185;51.854;6.622;2024-02-26T04:20:48;6.13;;;2.60;;
14203;SDS011;7185;51.854;6.622;2024-02-26T04:23:23;3.75;;;2.50;;
14203;SDS011;7185;51.854;6.622;2024-02-26T04:25:54;4.10;;;2.67;;
14203;SDS011;7185;51.854;6.622;2024-02-26T04:28:26;4.70;;;2.75;;
14203;SDS011;7185;51.854;6.622;2024-02-26T04:30:59;4.82;;;2.92;;
14203;SDS011;7185;51.854;6.622;2024-02-26T04:33:33;3.90;;;2.70;;
14203;SDS011;7185;51.854;6.622;2024-02-26T04:36:05;6.00;;;3.00;;
14203;SDS011;7185;51.854;6.622;2024-02-26T04:38:44;3.42;;;2.45;;
14203;SDS011;7185;51.854;6.622;2024-02-26T04:41:16;4.40;;;2.70;;
14203;SDS011;7185;51.854;6.622;2024-02-26T04:43:47;4.70;;;3.00;;
14203;SDS011;7185;51.854;6.622;2024-02-26T04:46:19;5.93;;;2.90;;
14203;SDS011;7185;51.854;6.622;2024-02-26T04:48:52;3.92;;;2.67;;
14203;SDS011;7185;51.854;6.622;2024-02-26T04:51:23;4.95;;;3.13;;
14203;SDS011;7185;51.854;6.622;2024-02-26T04:53:56;5.50;;;2.70;;
14203;SDS011;7185;51.854;6.622;2024-02-26T04:56:28;4.63;;;2.58;;
14203;SDS011;7185;51.854;6.622;2024-02-26T04:59:00;6.32;;;2.90;;
14203;SDS011;7185;51.854;6.622;2024-02-26T05:01:31;5.97;;;2.95;;
14203;SDS011;7185;51.854;6.622;2024-02-26T05:04:03;4.05;;;2.80;;
14203;SDS011;7185;51.854;6.622;2024-02-26T05:06:36;3.90;;;3.10;;
14203;SDS011;7185;51.854;6.622;2024-02-26T05:09:09;3.90;;;2.67;;
14203;SDS011;7185;51.854;6.622;2024-02-26T05:11:41;5.53;;;3.20;;
14203;SDS011;7185;51.854;6.622;2024-02-26T05:14:12;4.53;;;2.88;;
14203;SDS011;7185;51.854;6.622;2024-02-26T05:16:44;6.05;;;3.15;;
14203;SDS011;7185;51.854;6.622;2024-02-26T05:19:16;4.75;;;3.45;;
14203;SDS011;7185;51.854;6.622;2024-02-26T05:21:47;5.10;;;3.33;;
14203;SDS011;7185;51.854;6.622;2024-02-26T05:24:21;5.45;;;3.95;;
14203;SDS011;7185;51.854;6.622;2024-02-26T05:26:53;6.30;;;3.80;;
14203;SDS011;7185;51.854;6.622;2024-02-26T05:29:25;6.32;;;3.35;;
14203;SDS011;7185;51.854;6.622;2024-02-26T05:31:57;7.28;;;3.92;;
14203;SDS011;7185;51.854;6.622;2024-02-26T05:34:29;6.65;;;3.95;;
14203;SDS011;7185;51.854;6.622;2024-02-26T05:37:01;5.82;;;4.15;;
14203;SDS011;7185;51.854;6.622;2024-02-26T05:39:34;5.70;;;4.10;;
14203;SDS011;7185;51.854;6.622;2024-02-26T05:42:06;5.07;;;4.03;;
14203;SDS011;7185;51.854;6.622;2024-02-26T05:44:39;5.80;;;4.63;;
14203;SDS011;7185;51.854;6.622;2024-02-26T05:47:11;5.47;;;4.15;;
14203;SDS011;7185;51.854;6.622;2024-02-26T05:49:43;7.93;;;4.60;;
14203;SDS011;7185;51.854;6.622;2024-02-26T05:52:15;8.50;;;4.90;;
14203;SDS011;7185;51.854;6.622;2024-02-26T05:54:48;7.57;;;4.10;;
14203;SDS011;7185;51.854;6.622;2024-02-26T05:57:20;5.68;;;4.22;;
14203;SDS011;7185;51.854;6.622;2024-02-26T05:59:52;6.47;;;4.40;;
14203;SDS011;7185;51.854;6.622;2024-02-26T06:02:23;7.57;;;4.65;;
14203;SDS011;7185;51.854;6.622;2024-02-26T06:04:56;6.78;;;4.78;;
14203;SDS011;7185;51.854;6.622;2024-02-26T06:07:28;6.13;;;4.85;;
14203;SDS011;7185;51.854;6.622;2024-02-26T06:10:01;7.93;;;5.05;;
14203;SDS011;7185;51.854;6.622;2024-02-26T06:12:35;8.43;;;4.97;;
14203;SDS011;7185;51.854;6.622;2024-02-26T06:15:07;11.45;;;5.25;;
14203;SDS011;7185;51.854;6.622;2024-02-26T06:17:40;7.45;;;5.00;;
14203;SDS011;7185;51.854;6.622;2024-02-26T06:20:12;6.40;;;4.55;;
14203;SDS011;7185;51.854;6.622;2024-02-26T06:22:45;6.28;;;4.57;;
14203;SDS011;7185;51.854;6.622;2024-02-26T06:25:19;6.22;;;5.00;;
14203;SDS011;7185;51.854;6.622;2024-02-26T06:27:51;6.95;;;4.80;;
14203;SDS011;7185;51.854;6.622;2024-02-26T06:30:23;10.35;;;4.97;;
14203;SDS011;7185;51.854;6.622;2024-02-26T06:32:54;7.72;;;4.70;;
14203;SDS011;7185;51.854;6.622;2024-02-26T06:35:26;6.35;;;4.60;;
14203;SDS011;7185;51.854;6.622;2024-02-26T06:38:01;6.30;;;4.70;;
14203;SDS011;7185;51.854;6.622;2024-02-26T06:40:34;7.32;;;5.30;;
14203;SDS011;7185;51.854;6.622;2024-02-26T06:43:08;5.75;;;4.40;;
14203;SDS011;7185;51.854;6.622;2024-02-26T06:45:40;6.55;;;4.82;;
14203;SDS011;7185;51.854;6.622;2024-02-26T06:48:12;8.82;;;5.38;;
14203;SDS011;7185;51.854;6.622;2024-02-26T06:50:44;6.18;;;4.80;;
14203;SDS011;7185;51.854;6.622;2024-02-26T06:53:15;7.80;;;5.43;;
14203;SDS011;7185;51.854;6.622;2024-02-26T06:55:48;8.30;;;5.40;;
14203;SDS011;7185;51.854;6.622;2024-02-26T06:58:20;7.78;;;5.00;;
14203;SDS011;7185;51.854;6.622;2024-02-26T07:00:52;7.43;;;5.20;;
14203;SDS011;7185;51.854;6.622;2024-02-26T07:03:24;8.43;;;5.72;;
14203;SDS011;7185;51.854;6.622;2024-02-26T07:05:56;8.80;;;5.53;;
14203;SDS011;7185;51.854;6.622;2024-02-26T07:08:28;8.98;;;6.30;;
14203;SDS011;7185;51.854;6.622;2024-02-26T07:11:00;10.45;;;6.05;;
14203;SDS011;7185;51.854;6.622;2024-02-26T07:13:32;8.45;;;5.85;;
14203;SDS011;7185;51.854;6.622;2024-02-26T07:16:04;10.23;;;6.60;;
14203;SDS011;7185;51.854;6.622;2024-02-26T07:18:37;7.45;;;5.70;;
14203;SDS011;7185;51.854;6.622;2024-02-26T07:21:11;7.75;;;6.18;;
14203;SDS011;7185;51.854;6.622;2024-02-26T07:23:43;9.80;;;5.70;;
14203;SDS011;7185;51.854;6.622;2024-02-26T07:26:16;9.25;;;6.03;;
14203;SDS011;7185;51.854;6.622;2024-02-26T07:28:49;8.80;;;5.60;;
14203;SDS011;7185;51.854;6.622;2024-02-26T07:31:21;6.88;;;5.82;;
14203;SDS011;7185;51.854;6.622;2024-02-26T07:33:52;8.70;;;5.50;;
14203;SDS011;7185;51.854;6.622;2024-02-26T07:36:24;7.43;;;5.53;;
14203;SDS011;7185;51.854;6.622;2024-02-26T07:38:56;10.10;;;5.95;;
14203;SDS011;7185;51.854;6.622;2024-02-26T07:41:29;8.55;;;5.75;;
14203;SDS011;7185;51.854;6.622;2024-02-26T07:44:01;9.75;;;6.18;;
14203;SDS011;7185;51.854;6.622;2024-02-26T07:46:32;8.82;;;6.10;;
14203;SDS011;7185;51.854;6.622;2024-02-26T07:49:04;8.63;;;6.85;;
14203;SDS011;7185;51.854;6.622;2024-02-26T07:51:36;8.25;;;6.28;;
14203;SDS011;7185;51.854;6.622;2024-02-26T07:54:07;8.18;;;5.88;;
14203;SDS011;7185;51.854;6.622;2024-02-26T07:56:40;8.40;;;6.07;;
14203;SDS011;7185;51.854;6.622;2024-02-26T07:59:12;8.38;;;6.00;;
14203;SDS011;7185;51.854;6.622;2024-02-26T08:01:48;9.57;;;6.68;;
14203;SDS011;7185;51.854;6.622;2024-02-26T08:04:21;7.10;;;6.10;;
14203;SDS011;7185;51.854;6.622;2024-02-26T08:06:52;6.85;;;5.45;;
14203;SDS011;7185;51.854;6.622;2024-02-26T08:09:24;7.40;;;5.68;;
14203;SDS011;7185;51.854;6.622;2024-02-26T08:11:56;8.65;;;5.97;;
14203;SDS011;7185;51.854;6.622;2024-02-26T08:14:28;8.20;;;6.55;;
14203;SDS011;7185;51.854;6.622;2024-02-26T08:16:59;10.38;;;6.30;;
14203;SDS011;7185;51.854;6.622;2024-02-26T08:19:31;8.27;;;6.18;;
14203;SDS011;7185;51.854;6.622;2024-02-26T08:22:05;6.78;;;5.82;;
14203;SDS011;7185;51.854;6.622;2024-02-26T08:24:37;8.02;;;6.32;;
14203;SDS011;7185;51.854;6.622;2024-02-26T08:27:10;8.00;;;6.22;;
14203;SDS011;7185;51.854;6.622;2024-02-26T08:29:42;9.32;;;6.40;;
14203;SDS011;7185;51.854;6.622;2024-02-26T08:32:13;9.98;;;6.43;;
14203;SDS011;7185;51.854;6.622;2024-02-26T08:34:45;7.97;;;6.30;;
14203;SDS011;7185;51.854;6.622;2024-02-26T08:37:17;9.50;;;6.40;;
14203;SDS011;7185;51.854;6.622;2024-02-26T08:39:48;10.80;;;6.90;;
14203;SDS011;7185;51.854;6.622;2024-02-26T08:42:21;9.45;;;6.63;;
14203;SDS011;7185;51.854;6.622;2024-02-26T08:44:54;9.82;;;6.65;;
14203;SDS011;7185;51.854;6.622;2024-02-26T08:47:26;8.65;;;6.75;;
14203;SDS011;7185;51.854;6.622;2024-02-26T08:49:58;8.70;;;6.35;;
14203;SDS011;7185;51.854;6.622;2024-02-26T08:52:29;8.32;;;5.95;;
14203;SDS011;7185;51.854;6.622;2024-02-26T08:55:01;9.80;;;6.97;;
14203;SDS011;7185;51.854;6.622;2024-02-26T08:57:35;11.32;;;8.32;;
14203;SDS011;7185;51.854;6.622;2024-02-26T09:00:07;12.30;;;9.55;;
14203;SDS011;7185;51.854;6.622;2024-02-26T09:02:39;15.73;;;9.95;;
14203;SDS011;7185;51.854;6.622;2024-02-26T09:07:52;15.05;;;11.00;;
14203;SDS011;7185;51.854;6.622;2024-02-26T09:10:25;15.30;;;10.68;;
14203;SDS011;7185;51.854;6.622;2024-02-26T09:12:58;21.33;;;15.55;;
14203;SDS011;7185;51.854;6.622;2024-02-26T09:15:29;12.45;;;8.07;;
14203;SDS011;7185;51.854;6.622;2024-02-26T09:18:01;9.20;;;6.82;;
14203;SDS011;7185;51.854;6.622;2024-02-26T09:20:33;11.52;;;6.25;;
14203;SDS011;7185;51.854;6.622;2024-02-26T09:23:04;33.65;;;22.83;;
14203;SDS011;7185;51.854;6.622;2024-02-26T09:25:36;10.68;;;7.97;;
14203;SDS011;7185;51.854;6.622;2024-02-26T09:28:09;7.85;;;5.72;;
14203;SDS011;7185;51.854;6.622;2024-02-26T09:30:41;9.90;;;6.55;;
14203;SDS011;7185;51.854;6.622;2024-02-26T09:33:13;12.65;;;9.68;;
14203;SDS011;7185;51.854;6.622;2024-02-26T09:35:45;8.70;;;7.20;;
14203;SDS011;7185;51.854;6.622;2024-02-26T09:38:16;8.15;;;6.35;;
14203;SDS011;7185;51.854;6.622;2024-02-26T09:40:48;8.25;;;5.13;;
14203;SDS011;7185;51.854;6.622;2024-02-26T09:43:21;8.95;;;5.95;;
14203;SDS011;7185;51.854;6.622;2024-02-26T09:45:54;87.25;;;46.63;;
14203;SDS011;7185;51.854;6.622;2024-02-26T09:48:26;17.60;;;12.73;;
14203;SDS011;7185;51.854;6.622;2024-02-26T09:50:57;7.32;;;5.00;;
14203;SDS011;7185;51.854;6.622;2024-02-26T09:53:29;8.60;;;5.65;;
14203;SDS011;7185;51.854;6.622;2024-02-26T09:56:02;9.73;;;6.38;;
14203;SDS011;7185;51.854;6.622;2024-02-26T09:58:36;9.88;;;7.63;;
14203;SDS011;7185;51.854;6.622;2024-02-26T10:01:10;8.65;;;6.35;;
14203;SDS011;7185;51.854;6.622;2024-02-26T10:03:44;11.57;;;7.25;;
14203;SDS011;7185;51.854;6.622;2024-02-26T10:06:20;9.00;;;6.20;;
14203;SDS011;7185;51.854;6.622;2024-02-26T10:08:52;10.13;;;6.57;;
14203;SDS011;7185;51.854;6.622;2024-02-26T10:11:25;9.82;;;6.40;;
14203;SDS011;7185;51.854;6.622;2024-02-26T10:13:59;14.80;;;8.23;;
14203;SDS011;7185;51.854;6.622;2024-02-26T10:16:31;13.95;;;7.90;;
14203;SDS011;7185;51.854;6.622;2024-02-26T10:19:04;13.30;;;8.07;;
14203;SDS011;7185;51.854;6.622;2024-02-26T10:21:36;12.13;;;7.85;;
14203;SDS011;7185;51.854;6.622;2024-02-26T10:24:11;9.07;;;6.40;;
14203;SDS011;7185;51.854;6.622;2024-02-26T10:26:45;15.65;;;9.05;;
14203;SDS011;7185;51.854;6.622;2024-02-26T10:29:18;13.77;;;7.40;;
14203;SDS011;7185;51.854;6.622;2024-02-26T10:31:51;18.52;;;11.20;;
14203;SDS011;7185;51.854;6.622;2024-02-26T10:34:23;11.15;;;7.60;;
14203;SDS011;7185;51.854;6.622;2024-02-26T10:36:55;13.93;;;8.30;;
14203;SDS011;7185;51.854;6.622;2024-02-26T10:39:27;14.25;;;9.82;;
14203;SDS011;7185;51.854;6.622;2024-02-26T10:41:59;11.32;;;8.10;;
14203;SDS011;7185;51.854;6.622;2024-02-26T10:44:36;13.37;;;8.67;;
14203;SDS011;7185;51.854;6.622;2024-02-26T10:47:08;15.77;;;9.93;;
14203;SDS011;7185;51.854;6.622;2024-02-26T10:49:44;18.23;;;11.05;;
14203;SDS011;7185;51.854;6.622;2024-02-26T10:52:17;14.40;;;8.90;;
14203;SDS011;7185;51.854;6.622;2024-02-26T10:54:50;12.52;;;7.97;;
14203;SDS011;7185;51.854;6.622;2024-02-26T10:57:26;17.38;;;9.73;;
14203;SDS011;7185;51.854;6.622;2024-02-26T11:00:04;19.35;;;11.15;;
14203;SDS011;7185;51.854;6.622;2024-02-26T11:02:40;19.70;;;11.38;;
14203;SDS011;7185;51.854;6.622;2024-02-26T11:05:13;12.63;;;8.05;;
14203;SDS011;7185;51.854;6.622;2024-02-26T11:07:45;25.63;;;15.23;;
14203;SDS011;7185;51.854;6.622;2024-02-26T11:10:20;21.80;;;12.88;;
14203;SDS011;7185;51.854;6.622;2024-02-26T11:12:55;15.63;;;10.23;;
14203;SDS011;7185;51.854;6.622;2024-02-26T11:15:30;60.25;;;26.58;;
14203;SDS011;7185;51.854;6.622;2024-02-26T11:18:04;25.60;;;13.57;;
14203;SDS011;7185;51.854;6.622;2024-02-26T11:23:17;49.33;;;26.25;;
14203;SDS011;7185;51.854;6.622;2024-02-26T11:25:49;20.55;;;13.25;;
14203;SDS011;7185;51.854;6.622;2024-02-26T11:28:23;16.45;;;10.55;;
14203;SDS011;7185;51.854;6.622;2024-02-26T11:30:59;22.48;;;14.02;;
14203;SDS011;7185;51.854;6.622;2024-02-26T11:33:34;21.30;;;15.15;;
14203;SDS011;7185;51.854;6.622;2024-02-26T11:36:07;16.08;;;11.60;;
14203;SDS011;7185;51.854;6.622;2024-02-26T11:38:40;15.98;;;12.38;;
14203;SDS011;7185;51.854;6.622;2024-02-26T11:41:12;16.58;;;10.73;;
14203;SDS011;7185;51.854;6.622;2024-02-26T11:43:50;15.82;;;11.43;;
14203;SDS011;7185;51.854;6.622;2024-02-26T11:46:27;18.25;;;13.80;;
14203;SDS011;7185;51.854;6.622;2024-02-26T11:49:01;23.90;;;20.02;;
14203;SDS011;7185;51.854;6.622;2024-02-26T11:51:34;14.52;;;10.70;;
14203;SDS011;7185;51.854;6.622;2024-02-26T11:54:06;16.48;;;9.48;;
14203;SDS011;7185;51.854;6.622;2024-02-26T11:56:40;14.98;;;9.23;;
14203;SDS011;7185;51.854;6.622;2024-02-26T11:59:11;14.40;;;9.27;;
14203;SDS011;7185;51.854;6.622;2024-02-26T12:02:04;14.35;;;10.02;;
14203;SDS011;7185;51.854;6.622;2024-02-26T12:04:38;18.27;;;10.13;;
14203;SDS011;7185;51.854;6.622;2024-02-26T12:07:10;14.93;;;9.35;;
14203;SDS011;7185;51.854;6.622;2024-02-26T12:09:43;14.38;;;8.82;;
14203;SDS011;7185;51.854;6.622;2024-02-26T12:12:17;18.02;;;10.70;;
14203;SDS011;7185;51.854;6.622;2024-02-26T12:14:53;17.02;;;9.85;;
14203;SDS011;7185;51.854;6.622;2024-02-26T12:17:28;43.20;;;28.15;;
14203;SDS011;7185;51.854;6.622;2024-02-26T12:20:07;18.02;;;11.82;;
14203;SDS011;7185;51.854;6.622;2024-02-26T12:22:39;19.35;;;11.40;;
14203;SDS011;7185;51.854;6.622;2024-02-26T12:25:12;26.15;;;19.73;;
14203;SDS011;7185;51.854;6.622;2024-02-26T12:27:44;23.25;;;14.40;;
14203;SDS011;7185;51.854;6.622;2024-02-26T12:30:15;24.63;;;13.90;;
14203;SDS011;7185;51.854;6.622;2024-02-26T12:32:49;21.38;;;11.30;;
14203;SDS011;7185;51.854;6.622;2024-02-26T12:35:22;20.38;;;12.50;;
14203;SDS011;7185;51.854;6.622;2024-02-26T12:37:54;21.30;;;11.88;;
14203;SDS011;7185;51.854;6.622;2024-02-26T12:40:26;24.60;;;14.38;;
14203;SDS011;7185;51.854;6.622;2024-02-26T12:42:58;24.17;;;13.40;;
14203;SDS011;7185;51.854;6.622;2024-02-26T12:45:30;21.58;;;13.05;;
14203;SDS011;7185;51.854;6.622;2024-02-26T12:48:03;19.42;;;11.55;;
14203;SDS011;7185;51.854;6.622;2024-02-26T12:50:36;37.00;;;21.40;;
14203;SDS011;7185;51.854;6.622;2024-02-26T12:53:08;24.15;;;13.70;;
14203;SDS011;7185;51.854;6.622;2024-02-26T12:55:39;26.73;;;15.80;;
14203;SDS011;7185;51.854;6.622;2024-02-26T12:58:12;27.48;;;15.05;;
14203;SDS011;7185;51.854;6.622;2024-02-26T13:00:45;26.45;;;13.40;;
14203;SDS011;7185;51.854;6.622;2024-02-26T13:03:20;24.63;;;12.98;;
14203;SDS011;7185;51.854;6.622;2024-02-26T13:05:52;26.50;;;13.82;;
14203;SDS011;7185;51.854;6.622;2024-02-26T13:08:24;25.33;;;13.13;;
14203;SDS011;7185;51.854;6.622;2024-02-26T13:10:56;24.42;;;12.50;;
14203;SDS011;7185;51.854;6.622;2024-02-26T13:13:28;28.88;;;15.07;;
14203;SDS011;7185;51.854;6.622;2024-02-26T13:16:03;28.85;;;13.85;;
14203;SDS011;7185;51.854;6.622;2024-02-26T13:18:39;27.85;;;13.43;;
14203;SDS011;7185;51.854;6.622;2024-02-26T13:21:12;27.40;;;13.60;;
14203;SDS011;7185;51.854;6.622;2024-02-26T13:23:48;33.08;;;16.17;;
14203;SDS011;7185;51.854;6.622;2024-02-26T13:26:21;26.60;;;14.52;;
14203;SDS011;7185;51.854;6.622;2024-02-26T13:29:00;23.05;;;12.00;;
14203;SDS011;7185;51.854;6.622;2024-02-26T13:31:38;51.08;;;25.77;;
14203;SDS011;7185;51.854;6.622;2024-02-26T13:34:12;63.25;;;28.10;;
14203;SDS011;7185;51.854;6.622;2024-02-26T13:36:55;28.67;;;16.58;;
14203;SDS011;7185;51.854;6.622;2024-02-26T13:42:00;21.17;;;11.57;;
14203;SDS011;7185;51.854;6.622;2024-02-26T13:44:31;20.40;;;10.90;;
14203;SDS011;7185;51.854;6.622;2024-02-26T13:47:06;22.35;;;11.68;;
14203;SDS011;7185;51.854;6.622;2024-02-26T13:49:39;21.08;;;11.00;;
14203;SDS011;7185;51.854;6.622;2024-02-26T13:52:11;22.15;;;11.55;;
14203;SDS011;7185;51.854;6.622;2024-02-26T13:54:43;20.65;;;11.45;;
14203;SDS011;7185;51.854;6.622;2024-02-26T13:57:14;25.85;;;15.02;;
14203;SDS011;7185;51.854;6.622;2024-02-26T13:59:47;19.52;;;10.40;;
14203;SDS011;7185;51.854;6.622;2024-02-26T14:02:20;24.10;;;13.65;;
14203;SDS011;7185;51.854;6.622;2024-02-26T14:04:53;19.83;;;11.00;;
14203;SDS011;7185;51.854;6.622;2024-02-26T14:07:24;21.90;;;12.90;;
14203;SDS011;7185;51.854;6.622;2024-02-26T14:09:56;22.85;;;13.38;;
14203;SDS011;7185;51.854;6.622;2024-02-26T14:12:28;33.97;;;19.63;;
14203;SDS011;7185;51.854;6.622;2024-02-26T14:14:59;24.77;;;13.88;;
14203;SDS011;7185;51.854;6.622;2024-02-26T14:17:34;21.80;;;12.93;;
14203;SDS011;7185;51.854;6.622;2024-02-26T14:20:08;24.20;;;15.30;;
14203;SDS011;7185;51.854;6.622;2024-02-26T14:22:40;20.05;;;11.35;;
14203;SDS011;7185;51.854;6.622;2024-02-26T14:25:12;21.38;;;11.40;;
14203;SDS011;7185;51.854;6.622;2024-02-26T14:27:44;22.30;;;12.60;;
14203;SDS011;7185;51.854;6.622;2024-02-26T14:30:15;18.48;;;10.68;;
14203;SDS011;7185;51.854;6.622;2024-02-26T14:32:47;17.40;;;10.13;;
14203;SDS011;7185;51.854;6.622;2024-02-26T14:35:20;19.02;;;10.52;;
14203;SDS011;7185;51.854;6.622;2024-02-26T14:37:52;18.63;;;10.27;;
14203;SDS011;7185;51.854;6.622;2024-02-26T14:40:25;20.90;;;11.32;;
14203;SDS011;7185;51.854;6.622;2024-02-26T14:42:56;22.05;;;12.07;;
14203;SDS011;7185;51.854;6.622;2024-02-26T14:45:29;21.08;;;13.13;;
14203;SDS011;7185;51.854;6.622;2024-02-26T14:48:02;20.42;;;12.05;;
14203;SDS011;7185;51.854;6.622;2024-02-26T14:50:35;23.17;;;13.88;;
14203;SDS011;7185;51.854;6.622;2024-02-26T14:53:07;22.17;;;11.00;;
14203;SDS011;7185;51.854;6.622;2024-02-26T14:55:38;25.65;;;14.07;;
14203;SDS011;7185;51.854;6.622;2024-02-26T14:58:10;18.83;;;10.18;;
14203;SDS011;7185;51.854;6.622;2024-02-26T15:00:42;17.73;;;10.27;;
14203;SDS011;7185;51.854;6.622;2024-02-26T15:03:13;17.63;;;10.02;;
14203;SDS011;7185;51.854;6.622;2024-02-26T15:05:48;17.38;;;10.10;;
14203;SDS011;7185;51.854;6.622;2024-02-26T15:08:19;20.00;;;10.93;;
14203;SDS011;7185;51.854;6.622;2024-02-26T15:10:51;22.35;;;11.60;;
14203;SDS011;7185;51.854;6.622;2024-02-26T15:13:23;24.58;;;13.18;;
14203;SDS011;7185;51.854;6.622;2024-02-26T15:15:55;18.55;;;10.30;;
14203;SDS011;7185;51.854;6.622;2024-02-26T15:18:26;21.92;;;11.35;;
14203;SDS011;7185;51.854;6.622;2024-02-26T15:20:59;18.52;;;9.95;;
14203;SDS011;7185;51.854;6.622;2024-02-26T15:23:33;19.85;;;11.30;;
14203;SDS011;7185;51.854;6.622;2024-02-26T15:26:05;18.70;;;10.82;;
14203;SDS011;7185;51.854;6.622;2024-02-26T15:28:37;23.60;;;13.95;;
14203;SDS011;7185;51.854;6.622;2024-02-26T15:31:08;28.30;;;13.85;;
14203;SDS011;7185;51.854;6.622;2024-02-26T15:33:41;20.90;;;11.52;;
14203;SDS011;7185;51.854;6.622;2024-02-26T15:36:13;18.58;;;9.88;;